Virtual Norwegian is not affiliated with Norwegian Air Shuttle in any way.
If you are looking for the real "Norwegian", or you wish to book Norwegian flights, please visit Norwegian.com


We use cookies to ensure you get the best experience on our website.   ACCEPT

ENCN - KRS - Kristiansand (Kjevik)

General Info Alternate Airport
ICAO: ENCN Elevation: 57 ft ICAO: ENZV
IATA: KRS Country: Norway IATA: SVG
City: Kristiansand Charts: Log in to view charts City: Stavanger
Name: Kjevik Hub: No Name Sola
General Info
ICAO: ENCN
IATA: KRS
City: Kristiansand
Name: Kjevik
Elevation: 57 ft
Country: Norway
Charts: Log in to view charts
Hub: No
 
Alternate Airport
ICAO: ENZV
IATA: SVG
City: Stavanger
Name: Sola

Weather
211120Z 25012KT 220V320 CAVOK 23/11 Q1009
Weather
211120Z 25012KT 220V320 CAVOK 23/11 Q1009

Runway Info
04
Length ILS/LOC Course
2035 m 110.35 034
22
Length ILS/LOC Course
2035 m 110.90 214

NOTAMs
NOTAMs currently unavailable.
NOTAMs
NOTAMs currently unavailable

Route map
Airport
Airport (hub)